sensor_id;sensor_type;location;lat;lon;timestamp;pressure;altitude;pressure_sealevel;temperature;humidity
25658;BME280;13517;59.320;18.042;2023-08-20T00:01:45;101809.38;;;15.77;100.00
25658;BME280;13517;59.320;18.042;2023-08-20T00:04:12;101820.72;;;15.84;100.00
25658;BME280;13517;59.320;18.042;2023-08-20T00:06:38;101871.56;;;16.11;100.00
25658;BME280;13517;59.320;18.042;2023-08-20T00:09:03;101815.50;;;15.81;100.00
25658;BME280;13517;59.320;18.042;2023-08-20T00:11:31;101828.66;;;15.87;100.00
25658;BME280;13517;59.320;18.042;2023-08-20T00:13:57;101806.53;;;15.79;100.00
25658;BME280;13517;59.320;18.042;2023-08-20T00:16:22;101815.25;;;15.84;100.00
25658;BME280;13517;59.320;18.042;2023-08-20T00:18:48;101826.06;;;15.86;100.00
25658;BME280;13517;59.320;18.042;2023-08-20T00:21:14;101861.09;;;16.05;100.00
25658;BME280;13517;59.320;18.042;2023-08-20T00:23:39;101807.50;;;15.65;100.00
25658;BME280;13517;59.320;18.042;2023-08-20T00:26:05;101872.25;;;16.02;100.00
25658;BME280;13517;59.320;18.042;2023-08-20T00:28:30;101872.25;;;16.02;100.00
25658;BME280;13517;59.320;18.042;2023-08-20T00:30:58;101800.28;;;15.51;100.00
25658;BME280;13517;59.320;18.042;2023-08-20T00:33:24;101853.84;;;15.91;100.00
25658;BME280;13517;59.320;18.042;2023-08-20T00:35:49;101797.91;;;15.59;100.00
25658;BME280;13517;59.320;18.042;2023-08-20T00:38:14;101871.44;;;16.00;100.00
25658;BME280;13517;59.320;18.042;2023-08-20T00:40:40;101869.28;;;16.05;100.00
25658;BME280;13517;59.320;18.042;2023-08-20T00:43:05;101804.78;;;15.65;100.00
25658;BME280;13517;59.320;18.042;2023-08-20T00:45:31;101858.03;;;15.97;100.00
25658;BME280;13517;59.320;18.042;2023-08-20T00:47:57;101804.13;;;15.61;100.00
25658;BME280;13517;59.320;18.042;2023-08-20T00:50:22;101874.97;;;16.02;100.00
25658;BME280;13517;59.320;18.042;2023-08-20T00:52:48;101816.53;;;15.65;100.00
25658;BME280;13517;59.320;18.042;2023-08-20T00:55:13;101803.69;;;15.68;100.00
25658;BME280;13517;59.320;18.042;2023-08-20T00:57:40;101859.38;;;16.04;100.00
25658;BME280;13517;59.320;18.042;2023-08-20T01:00:07;101857.63;;;16.03;100.00
25658;BME280;13517;59.320;18.042;2023-08-20T01:02:36;101776.22;;;15.58;100.00
25658;BME280;13517;59.320;18.042;2023-08-20T01:05:03;101779.72;;;15.60;100.00
25658;BME280;13517;59.320;18.042;2023-08-20T01:07:43;101839.16;;;15.93;100.00
25658;BME280;13517;59.320;18.042;2023-08-20T01:10:34;101834.56;;;15.81;100.00
25658;BME280;13517;59.320;18.042;2023-08-20T01:13:05;101825.28;;;15.84;100.00
25658;BME280;13517;59.320;18.042;2023-08-20T01:15:31;101792.25;;;15.62;100.00
25658;BME280;13517;59.320;18.042;2023-08-20T01:17:56;101840.16;;;15.92;100.00
25658;BME280;13517;59.320;18.042;2023-08-20T01:20:26;101834.25;;;15.86;100.00
25658;BME280;13517;59.320;18.042;2023-08-20T01:28:26;101822.44;;;15.72;100.00
25658;BME280;13517;59.320;18.042;2023-08-20T01:30:54;101796.88;;;15.47;100.00
25658;BME280;13517;59.320;18.042;2023-08-20T01:33:22;101831.69;;;15.70;100.00
25658;BME280;13517;59.320;18.042;2023-08-20T01:35:50;101831.78;;;15.68;100.00
25658;BME280;13517;59.320;18.042;2023-08-20T01:38:15;101776.81;;;15.35;100.00
25658;BME280;13517;59.320;18.042;2023-08-20T01:40:41;101793.81;;;15.39;100.00
25658;BME280;13517;59.320;18.042;2023-08-20T01:43:06;101818.06;;;15.57;100.00
25658;BME280;13517;59.320;18.042;2023-08-20T01:45:32;101812.81;;;15.53;100.00
25658;BME280;13517;59.320;18.042;2023-08-20T01:47:57;101835.81;;;15.62;100.00
25658;BME280;13517;59.320;18.042;2023-08-20T01:50:23;101775.81;;;15.23;100.00
25658;BME280;13517;59.320;18.042;2023-08-20T01:52:48;101837.22;;;15.55;100.00
25658;BME280;13517;59.320;18.042;2023-08-20T01:55:14;101804.59;;;15.28;100.00
25658;BME280;13517;59.320;18.042;2023-08-20T01:57:39;101847.56;;;15.50;100.00
25658;BME280;13517;59.320;18.042;2023-08-20T02:00:05;101851.81;;;15.54;100.00
25658;BME280;13517;59.320;18.042;2023-08-20T02:02:32;101843.31;;;15.46;100.00
25658;BME280;13517;59.320;18.042;2023-08-20T02:04:58;101839.59;;;15.47;100.00
25658;BME280;13517;59.320;18.042;2023-08-20T02:07:23;101788.09;;;15.16;100.00
25658;BME280;13517;59.320;18.042;2023-08-20T02:09:48;101838.16;;;15.41;100.00
25658;BME280;13517;59.320;18.042;2023-08-20T02:12:14;101802.59;;;15.17;100.00
25658;BME280;13517;59.320;18.042;2023-08-20T02:14:40;101844.38;;;15.43;100.00
25658;BME280;13517;59.320;18.042;2023-08-20T02:17:06;101787.53;;;15.11;100.00
25658;BME280;13517;59.320;18.042;2023-08-20T02:19:32;101839.34;;;15.37;100.00
25658;BME280;13517;59.320;18.042;2023-08-20T02:21:57;101827.56;;;15.36;100.00
25658;BME280;13517;59.320;18.042;2023-08-20T02:24:23;101814.59;;;15.27;100.00
25658;BME280;13517;59.320;18.042;2023-08-20T02:26:48;101813.84;;;15.25;100.00
25658;BME280;13517;59.320;18.042;2023-08-20T02:29:14;101748.16;;;14.89;100.00
25658;BME280;13517;59.320;18.042;2023-08-20T02:31:39;101761.13;;;14.98;100.00
25658;BME280;13517;59.320;18.042;2023-08-20T02:34:05;101812.13;;;15.37;100.00
25658;BME280;13517;59.320;18.042;2023-08-20T02:36:30;101724.22;;;14.81;100.00
25658;BME280;13517;59.320;18.042;2023-08-20T02:38:56;101788.75;;;15.20;100.00
25658;BME280;13517;59.320;18.042;2023-08-20T02:41:21;101725.06;;;14.82;100.00
25658;BME280;13517;59.320;18.042;2023-08-20T02:43:48;101819.56;;;15.48;100.00
25658;BME280;13517;59.320;18.042;2023-08-20T02:46:13;101818.56;;;15.49;100.00
25658;BME280;13517;59.320;18.042;2023-08-20T02:48:39;101799.38;;;15.37;100.00
25658;BME280;13517;59.320;18.042;2023-08-20T02:51:04;101768.81;;;15.19;100.00
25658;BME280;13517;59.320;18.042;2023-08-20T02:53:29;101813.34;;;15.46;100.00
25658;BME280;13517;59.320;18.042;2023-08-20T02:55:55;101813.03;;;15.50;100.00
25658;BME280;13517;59.320;18.042;2023-08-20T02:58:21;101765.91;;;15.22;100.00
25658;BME280;13517;59.320;18.042;2023-08-20T03:00:47;101764.28;;;15.20;100.00
25658;BME280;13517;59.320;18.042;2023-08-20T03:03:12;101763.50;;;15.18;100.00
25658;BME280;13517;59.320;18.042;2023-08-20T03:05:38;101767.56;;;15.25;100.00
25658;BME280;13517;59.320;18.042;2023-08-20T03:08:03;101778.03;;;15.31;100.00
25658;BME280;13517;59.320;18.042;2023-08-20T03:10:30;101796.88;;;15.47;100.00
25658;BME280;13517;59.320;18.042;2023-08-20T03:12:56;101766.56;;;15.26;100.00
25658;BME280;13517;59.320;18.042;2023-08-20T03:15:21;101763.28;;;15.21;100.00
25658;BME280;13517;59.320;18.042;2023-08-20T03:17:47;101765.44;;;15.16;100.00
25658;BME280;13517;59.320;18.042;2023-08-20T03:20:12;101809.00;;;15.43;100.00
25658;BME280;13517;59.320;18.042;2023-08-20T03:22:38;101737.97;;;15.06;100.00
25658;BME280;13517;59.320;18.042;2023-08-20T03:25:04;101724.25;;;14.94;100.00
25658;BME280;13517;59.320;18.042;2023-08-20T03:27:30;101754.00;;;15.10;100.00
25658;BME280;13517;59.320;18.042;2023-08-20T03:29:56;101772.22;;;15.23;100.00
25658;BME280;13517;59.320;18.042;2023-08-20T03:32:22;101784.91;;;15.37;100.00
25658;BME280;13517;59.320;18.042;2023-08-20T03:34:47;101727.97;;;15.06;100.00
25658;BME280;13517;59.320;18.042;2023-08-20T03:37:12;101821.53;;;15.59;100.00
25658;BME280;13517;59.320;18.042;2023-08-20T03:39:38;101793.72;;;15.41;100.00
25658;BME280;13517;59.320;18.042;2023-08-20T03:42:03;101808.44;;;15.51;100.00
25658;BME280;13517;59.320;18.042;2023-08-20T03:44:30;101802.66;;;15.43;100.00
25658;BME280;13517;59.320;18.042;2023-08-20T03:46:56;101768.09;;;15.30;100.00
25658;BME280;13517;59.320;18.042;2023-08-20T03:49:21;101746.28;;;15.17;100.00
25658;BME280;13517;59.320;18.042;2023-08-20T03:51:47;101810.41;;;15.49;100.00
25658;BME280;13517;59.320;18.042;2023-08-20T03:54:13;101709.34;;;15.00;100.00
25658;BME280;13517;59.320;18.042;2023-08-20T03:56:38;101764.28;;;15.33;100.00
25658;BME280;13517;59.320;18.042;2023-08-20T03:59:04;101766.16;;;15.32;100.00
25658;BME280;13517;59.320;18.042;2023-08-20T04:01:29;101768.66;;;15.35;100.00
25658;BME280;13517;59.320;18.042;2023-08-20T04:03:55;101784.47;;;15.43;100.00
25658;BME280;13517;59.320;18.042;2023-08-20T04:06:20;101784.34;;;15.45;100.00
25658;BME280;13517;59.320;18.042;2023-08-20T04:08:46;101759.50;;;15.23;100.00
25658;BME280;13517;59.320;18.042;2023-08-20T04:11:11;101743.25;;;15.22;100.00
25658;BME280;13517;59.320;18.042;2023-08-20T04:13:37;101758.31;;;15.28;100.00
25658;BME280;13517;59.320;18.042;2023-08-20T04:16:02;101767.91;;;15.33;100.00
25658;BME280;13517;59.320;18.042;2023-08-20T04:18:28;101747.63;;;15.24;100.00
25658;BME280;13517;59.320;18.042;2023-08-20T04:20:53;101792.66;;;15.56;100.00
25658;BME280;13517;59.320;18.042;2023-08-20T04:23:19;101796.72;;;15.63;100.00
25658;BME280;13517;59.320;18.042;2023-08-20T04:25:45;101706.69;;;15.13;100.00
25658;BME280;13517;59.320;18.042;2023-08-20T04:28:12;101771.53;;;15.47;100.00
25658;BME280;13517;59.320;18.042;2023-08-20T04:30:38;101791.91;;;15.67;100.00
25658;BME280;13517;59.320;18.042;2023-08-20T04:33:04;101729.78;;;15.33;100.00
25658;BME280;13517;59.320;18.042;2023-08-20T04:35:29;101786.03;;;15.60;100.00
25658;BME280;13517;59.320;18.042;2023-08-20T04:37:55;101743.06;;;15.38;100.00
25658;BME280;13517;59.320;18.042;2023-08-20T04:40:20;101781.22;;;15.51;100.00
25658;BME280;13517;59.320;18.042;2023-08-20T04:42:46;101729.88;;;15.19;100.00
25658;BME280;13517;59.320;18.042;2023-08-20T04:45:11;101792.47;;;15.59;100.00
25658;BME280;13517;59.320;18.042;2023-08-20T04:47:37;101729.22;;;15.28;100.00
25658;BME280;13517;59.320;18.042;2023-08-20T04:50:03;101772.41;;;15.60;100.00
25658;BME280;13517;59.320;18.042;2023-08-20T04:52:33;101689.88;;;15.06;100.00
25658;BME280;13517;59.320;18.042;2023-08-20T04:54:59;101704.63;;;15.17;100.00
25658;BME280;13517;59.320;18.042;2023-08-20T04:57:24;101724.13;;;15.36;100.00
25658;BME280;13517;59.320;18.042;2023-08-20T04:59:50;101789.84;;;15.71;100.00
25658;BME280;13517;59.320;18.042;2023-08-20T05:02:15;101781.91;;;15.68;100.00
25658;BME280;13517;59.320;18.042;2023-08-20T05:04:41;101722.19;;;15.38;100.00
25658;BME280;13517;59.320;18.042;2023-08-20T05:07:06;101722.19;;;15.51;100.00
25658;BME280;13517;59.320;18.042;2023-08-20T05:09:32;101713.13;;;15.51;100.00
25658;BME280;13517;59.320;18.042;2023-08-20T05:11:58;101769.59;;;15.88;100.00
25658;BME280;13517;59.320;18.042;2023-08-20T05:14:24;101716.50;;;15.55;100.00
25658;BME280;13517;59.320;18.042;2023-08-20T05:16:49;101758.03;;;15.84;100.00
25658;BME280;13517;59.320;18.042;2023-08-20T05:19:14;101778.47;;;15.91;100.00
25658;BME280;13517;59.320;18.042;2023-08-20T05:21:40;101777.38;;;15.94;100.00
25658;BME280;13517;59.320;18.042;2023-08-20T05:24:05;101770.16;;;16.06;100.00
25658;BME280;13517;59.320;18.042;2023-08-20T05:26:31;101746.66;;;15.92;100.00
25658;BME280;13517;59.320;18.042;2023-08-20T05:28:56;101708.69;;;15.76;100.00
25658;BME280;13517;59.320;18.042;2023-08-20T05:31:22;101756.22;;;15.98;100.00
25658;BME280;13517;59.320;18.042;2023-08-20T05:33:47;101765.81;;;16.03;100.00
25658;BME280;13517;59.320;18.042;2023-08-20T05:36:14;101762.31;;;16.01;100.00
25658;BME280;13517;59.320;18.042;2023-08-20T05:38:39;101723.16;;;15.76;100.00
25658;BME280;13517;59.320;18.042;2023-08-20T05:41:07;101756.47;;;15.95;100.00
25658;BME280;13517;59.320;18.042;2023-08-20T05:43:32;101758.50;;;16.04;100.00
25658;BME280;13517;59.320;18.042;2023-08-20T05:45:58;101745.97;;;16.01;100.00
25658;BME280;13517;59.320;18.042;2023-08-20T05:48:23;101744.25;;;16.00;100.00
25658;BME280;13517;59.320;18.042;2023-08-20T05:50:49;101714.13;;;15.89;100.00
25658;BME280;13517;59.320;18.042;2023-08-20T05:53:14;101764.03;;;16.15;100.00
25658;BME280;13517;59.320;18.042;2023-08-20T05:55:39;101737.69;;;16.03;100.00
25658;BME280;13517;59.320;18.042;2023-08-20T05:58:05;101759.16;;;16.20;100.00
25658;BME280;13517;59.320;18.042;2023-08-20T06:00:30;101758.06;;;16.23;100.00
25658;BME280;13517;59.320;18.042;2023-08-20T06:02:56;101757.06;;;16.24;100.00
25658;BME280;13517;59.320;18.042;2023-08-20T06:05:21;101742.03;;;16.18;100.00
25658;BME280;13517;59.320;18.042;2023-08-20T06:07:47;101758.91;;;16.37;100.00
25658;BME280;13517;59.320;18.042;2023-08-20T06:10:12;101710.84;;;16.10;100.00
25658;BME280;13517;59.320;18.042;2023-08-20T06:12:38;101721.41;;;16.27;100.00
25658;BME280;13517;59.320;18.042;2023-08-20T06:15:04;101731.19;;;16.30;100.00
25658;BME280;13517;59.320;18.042;2023-08-20T06:17:30;101686.78;;;16.03;100.00
25658;BME280;13517;59.320;18.042;2023-08-20T06:19:55;101748.53;;;16.42;100.00
25658;BME280;13517;59.320;18.042;2023-08-20T06:22:21;101692.66;;;16.10;100.00
25658;BME280;13517;59.320;18.042;2023-08-20T06:24:46;101683.50;;;16.11;100.00
25658;BME280;13517;59.320;18.042;2023-08-20T06:27:12;101705.16;;;16.26;100.00
25658;BME280;13517;59.320;18.042;2023-08-20T06:29:37;101685.53;;;16.20;100.00
25658;BME280;13517;59.320;18.042;2023-08-20T06:32:04;101632.28;;;15.90;100.00
25658;BME280;13517;59.320;18.042;2023-08-20T06:34:29;101744.44;;;16.60;100.00
25658;BME280;13517;59.320;18.042;2023-08-20T06:36:55;101715.56;;;16.45;100.00
25658;BME280;13517;59.320;18.042;2023-08-20T06:39:20;101718.19;;;16.46;100.00
25658;BME280;13517;59.320;18.042;2023-08-20T06:41:46;101716.59;;;16.68;100.00
25658;BME280;13517;59.320;18.042;2023-08-20T06:44:11;101739.13;;;16.83;100.00
25658;BME280;13517;59.320;18.042;2023-08-20T06:46:36;101721.22;;;16.79;100.00
25658;BME280;13517;59.320;18.042;2023-08-20T06:49:02;101731.34;;;16.90;100.00
25658;BME280;13517;59.320;18.042;2023-08-20T06:51:28;101705.56;;;16.70;100.00
25658;BME280;13517;59.320;18.042;2023-08-20T06:53:54;101735.91;;;16.89;100.00
25658;BME280;13517;59.320;18.042;2023-08-20T06:56:20;101698.47;;;16.67;100.00
25658;BME280;13517;59.320;18.042;2023-08-20T06:58:46;101745.72;;;16.92;100.00
25658;BME280;13517;59.320;18.042;2023-08-20T07:01:11;101711.66;;;16.73;100.00
25658;BME280;13517;59.320;18.042;2023-08-20T07:03:39;101653.19;;;16.40;100.00
25658;BME280;13517;59.320;18.042;2023-08-20T07:06:06;101627.59;;;16.30;100.00
25658;BME280;13517;59.320;18.042;2023-08-20T07:08:32;101718.44;;;16.92;100.00
25658;BME280;13517;59.320;18.042;2023-08-20T07:10:58;101699.03;;;16.84;100.00
25658;BME280;13517;59.320;18.042;2023-08-20T07:13:23;101747.63;;;17.16;100.00
25658;BME280;13517;59.320;18.042;2023-08-20T07:15:49;101737.91;;;17.12;100.00
25658;BME280;13517;59.320;18.042;2023-08-20T07:18:15;101717.53;;;17.05;100.00
25658;BME280;13517;59.320;18.042;2023-08-20T07:20:43;101751.63;;;17.23;100.00
25658;BME280;13517;59.320;18.042;2023-08-20T07:23:10;101716.47;;;16.94;100.00
25658;BME280;13517;59.320;18.042;2023-08-20T07:25:40;101627.38;;;16.57;100.00
25658;BME280;13517;59.320;18.042;2023-08-20T07:28:06;101744.97;;;17.39;100.00
25658;BME280;13517;59.320;18.042;2023-08-20T07:30:32;101743.97;;;17.40;100.00
25658;BME280;13517;59.320;18.042;2023-08-20T07:32:58;101709.78;;;17.23;100.00
25658;BME280;13517;59.320;18.042;2023-08-20T07:35:24;101723.69;;;17.31;100.00
25658;BME280;13517;59.320;18.042;2023-08-20T07:37:50;101659.38;;;16.91;100.00
25658;BME280;13517;59.320;18.042;2023-08-20T07:40:15;101738.50;;;17.40;100.00
25658;BME280;13517;59.320;18.042;2023-08-20T07:42:41;101746.50;;;17.54;100.00
25658;BME280;13517;59.320;18.042;2023-08-20T07:45:07;101748.97;;;17.58;100.00
25658;BME280;13517;59.320;18.042;2023-08-20T07:47:36;101748.75;;;17.61;100.00
25658;BME280;13517;59.320;18.042;2023-08-20T07:50:02;101751.69;;;17.58;100.00
25658;BME280;13517;59.320;18.042;2023-08-20T07:52:27;101731.53;;;17.36;100.00
25658;BME280;13517;59.320;18.042;2023-08-20T07:54:53;101720.31;;;17.16;100.00
25658;BME280;13517;59.320;18.042;2023-08-20T07:57:18;101754.47;;;17.22;100.00
25658;BME280;13517;59.320;18.042;2023-08-20T07:59:43;101751.97;;;17.19;100.00
25658;BME280;13517;59.320;18.042;2023-08-20T08:02:09;101727.78;;;17.01;100.00
25658;BME280;13517;59.320;18.042;2023-08-20T08:04:35;101739.00;;;17.09;100.00
25658;BME280;13517;59.320;18.042;2023-08-20T08:07:01;101756.09;;;17.24;100.00
25658;BME280;13517;59.320;18.042;2023-08-20T08:09:27;101755.63;;;17.31;100.00
25658;BME280;13517;59.320;18.042;2023-08-20T08:11:53;101751.63;;;17.35;100.00
25658;BME280;13517;59.320;18.042;2023-08-20T08:14:19;101719.84;;;17.22;100.00
25658;BME280;13517;59.320;18.042;2023-08-20T08:16:45;101770.06;;;17.44;100.00
25658;BME280;13517;59.320;18.042;2023-08-20T08:19:11;101708.69;;;17.25;100.00
25658;BME280;13517;59.320;18.042;2023-08-20T08:21:36;101703.69;;;17.19;100.00
25658;BME280;13517;59.320;18.042;2023-08-20T08:24:02;101698.47;;;17.16;100.00
25658;BME280;13517;59.320;18.042;2023-08-20T08:26:28;101710.41;;;17.26;100.00
25658;BME280;13517;59.320;18.042;2023-08-20T08:28:54;101711.94;;;17.31;100.00
25658;BME280;13517;59.320;18.042;2023-08-20T08:31:19;101673.28;;;17.12;100.00
25658;BME280;13517;59.320;18.042;2023-08-20T08:33:45;101673.38;;;17.11;100.00
25658;BME280;13517;59.320;18.042;2023-08-20T08:36:10;101729.72;;;17.48;100.00
25658;BME280;13517;59.320;18.042;2023-08-20T08:38:36;101655.00;;;17.13;100.00
25658;BME280;13517;59.320;18.042;2023-08-20T08:41:03;101716.56;;;17.53;100.00
25658;BME280;13517;59.320;18.042;2023-08-20T08:43:34;101719.56;;;17.61;100.00
25658;BME280;13517;59.320;18.042;2023-08-20T08:46:01;101682.50;;;17.46;100.00
25658;BME280;13517;59.320;18.042;2023-08-20T08:48:29;101706.03;;;17.71;100.00
25658;BME280;13517;59.320;18.042;2023-08-20T08:50:55;101707.03;;;17.70;100.00
25658;BME280;13517;59.320;18.042;2023-08-20T08:53:23;101708.28;;;17.77;100.00
25658;BME280;13517;59.320;18.042;2023-08-20T08:55:49;101716.13;;;17.93;100.00
25658;BME280;13517;59.320;18.042;2023-08-20T08:58:15;101724.69;;;18.00;100.00
25658;BME280;13517;59.320;18.042;2023-08-20T09:00:40;101686.41;;;17.77;100.00
25658;BME280;13517;59.320;18.042;2023-08-20T09:03:06;101720.56;;;17.94;100.00
25658;BME280;13517;59.320;18.042;2023-08-20T09:05:31;101689.38;;;17.86;100.00
25658;BME280;13517;59.320;18.042;2023-08-20T09:07:57;101729.94;;;18.26;100.00
25658;BME280;13517;59.320;18.042;2023-08-20T09:10:26;101730.16;;;18.34;100.00
25658;BME280;13517;59.320;18.042;2023-08-20T09:12:54;101736.25;;;18.49;100.00
25658;BME280;13517;59.320;18.042;2023-08-20T09:15:19;101730.88;;;18.59;100.00
25658;BME280;13517;59.320;18.042;2023-08-20T09:17:46;101695.47;;;18.46;100.00
25658;BME280;13517;59.320;18.042;2023-08-20T09:20:11;101710.34;;;18.65;100.00
25658;BME280;13517;59.320;18.042;2023-08-20T09:22:37;101727.56;;;18.88;100.00
25658;BME280;13517;59.320;18.042;2023-08-20T09:25:03;101618.53;;;18.28;100.00
25658;BME280;13517;59.320;18.042;2023-08-20T09:27:29;101659.94;;;18.68;100.00
25658;BME280;13517;59.320;18.042;2023-08-20T09:29:56;101705.09;;;19.06;100.00
25658;BME280;13517;59.320;18.042;2023-08-20T09:32:27;101717.22;;;19.25;100.00
25658;BME280;13517;59.320;18.042;2023-08-20T09:34:54;101724.41;;;19.37;100.00
25658;BME280;13517;59.320;18.042;2023-08-20T09:37:21;101720.56;;;19.28;100.00
25658;BME280;13517;59.320;18.042;2023-08-20T09:39:47;101723.72;;;19.24;100.00
25658;BME280;13517;59.320;18.042;2023-08-20T09:42:13;101719.38;;;19.21;100.00
25658;BME280;13517;59.320;18.042;2023-08-20T09:44:44;101606.75;;;18.60;100.00
25658;BME280;13517;59.320;18.042;2023-08-20T09:49:40;101718.13;;;19.25;100.00
25658;BME280;13517;59.320;18.042;2023-08-20T09:52:08;101713.28;;;19.17;100.00
25658;BME280;13517;59.320;18.042;2023-08-20T09:55:11;101715.00;;;19.18;100.00
25658;BME280;13517;59.320;18.042;2023-08-20T09:57:38;101710.06;;;19.12;100.00
25658;BME280;13517;59.320;18.042;2023-08-20T10:00:05;101668.06;;;18.90;100.00
25658;BME280;13517;59.320;18.042;2023-08-20T10:02:35;101715.53;;;19.12;100.00
25658;BME280;13517;59.320;18.042;2023-08-20T10:05:00;101675.53;;;18.88;100.00
25658;BME280;13517;59.320;18.042;2023-08-20T10:07:29;101710.63;;;18.95;100.00
25658;BME280;13517;59.320;18.042;2023-08-20T10:09:58;101703.25;;;18.95;100.00
25658;BME280;13517;59.320;18.042;2023-08-20T10:12:26;101699.03;;;19.02;100.00
25658;BME280;13517;59.320;18.042;2023-08-20T10:14:52;101679.00;;;18.90;100.00
25658;BME280;13517;59.320;18.042;2023-08-20T10:17:18;101707.81;;;19.17;100.00
25658;BME280;13517;59.320;18.042;2023-08-20T10:19:44;101626.00;;;18.91;100.00
25658;BME280;13517;59.320;18.042;2023-08-20T10:22:09;101706.59;;;19.53;100.00
25658;BME280;13517;59.320;18.042;2023-08-20T10:24:54;101672.81;;;19.42;100.00
25658;BME280;13517;59.320;18.042;2023-08-20T10:27:30;101683.41;;;19.57;100.00
25658;BME280;13517;59.320;18.042;2023-08-20T10:29:59;101654.09;;;19.26;100.00
25658;BME280;13517;59.320;18.042;2023-08-20T10:32:50;101713.75;;;19.44;100.00
25658;BME280;13517;59.320;18.042;2023-08-20T10:35:26;101709.28;;;19.43;100.00
25658;BME280;13517;59.320;18.042;2023-08-20T10:38:12;101657.09;;;19.02;100.00
25658;BME280;13517;59.320;18.042;2023-08-20T10:40:54;101699.06;;;19.24;100.00
25658;BME280;13517;59.320;18.042;2023-08-20T10:43:39;101699.59;;;19.17;100.00
25658;BME280;13517;59.320;18.042;2023-08-20T10:53:37;101649.38;;;18.96;100.00
25658;BME280;13517;59.320;18.042;2023-08-20T10:56:12;101703.06;;;19.19;100.00
25658;BME280;13517;59.320;18.042;2023-08-20T10:58:42;101682.22;;;19.07;100.00
25658;BME280;13517;59.320;18.042;2023-08-20T11:01:18;101696.84;;;19.17;100.00
25658;BME280;13517;59.320;18.042;2023-08-20T11:03:45;101694.84;;;19.19;100.00
25658;BME280;13517;59.320;18.042;2023-08-20T11:06:11;101693.59;;;19.24;100.00
25658;BME280;13517;59.320;18.042;2023-08-20T11:08:38;101648.88;;;19.02;100.00
25658;BME280;13517;59.320;18.042;2023-08-20T11:11:03;101652.81;;;19.09;100.00
25658;BME280;13517;59.320;18.042;2023-08-20T11:13:32;101693.38;;;19.37;100.00
25658;BME280;13517;59.320;18.042;2023-08-20T11:15:58;101701.94;;;19.43;100.00
25658;BME280;13517;59.320;18.042;2023-08-20T11:18:24;101651.53;;;19.13;100.00
25658;BME280;13517;59.320;18.042;2023-08-20T11:20:50;101684.56;;;19.33;100.00
25658;BME280;13517;59.320;18.042;2023-08-20T11:23:16;101698.31;;;19.43;100.00
25658;BME280;13517;59.320;18.042;2023-08-20T11:25:42;101626.28;;;19.10;100.00
25658;BME280;13517;59.320;18.042;2023-08-20T11:28:08;101667.09;;;19.34;100.00
25658;BME280;13517;59.320;18.042;2023-08-20T11:30:34;101668.72;;;19.37;100.00
25658;BME280;13517;59.320;18.042;2023-08-20T11:33:00;101674.34;;;19.35;100.00
25658;BME280;13517;59.320;18.042;2023-08-20T11:35:26;101626.44;;;19.08;100.00
25658;BME280;13517;59.320;18.042;2023-08-20T11:37:52;101674.97;;;19.49;100.00
25658;BME280;13517;59.320;18.042;2023-08-20T11:40:21;101607.88;;;19.12;100.00
25658;BME280;13517;59.320;18.042;2023-08-20T11:42:47;101653.81;;;19.51;100.00
25658;BME280;13517;59.320;18.042;2023-08-20T11:45:13;101617.53;;;19.37;100.00
25658;BME280;13517;59.320;18.042;2023-08-20T11:47:42;101633.44;;;19.43;100.00
25658;BME280;13517;59.320;18.042;2023-08-20T11:50:08;101650.25;;;19.60;100.00
25658;BME280;13517;59.320;18.042;2023-08-20T11:52:36;101663.41;;;19.66;100.00
25658;BME280;13517;59.320;18.042;2023-08-20T11:55:02;101624.53;;;19.51;100.00
25658;BME280;13517;59.320;18.042;2023-08-20T11:57:29;101661.03;;;19.83;100.00
25658;BME280;13517;59.320;18.042;2023-08-20T11:59:55;101621.19;;;19.48;100.00
25658;BME280;13517;59.320;18.042;2023-08-20T12:02:26;101648.44;;;19.70;100.00
25658;BME280;13517;59.320;18.042;2023-08-20T12:04:55;101650.81;;;19.85;100.00
25658;BME280;13517;59.320;18.042;2023-08-20T12:07:27;101657.94;;;19.97;100.00
25658;BME280;13517;59.320;18.042;2023-08-20T12:09:54;101584.34;;;19.62;100.00
25658;BME280;13517;59.320;18.042;2023-08-20T12:12:20;101647.31;;;20.14;100.00
25658;BME280;13517;59.320;18.042;2023-08-20T12:14:46;101662.50;;;20.28;100.00
25658;BME280;13517;59.320;18.042;2023-08-20T12:17:11;101648.66;;;20.30;100.00
25658;BME280;13517;59.320;18.042;2023-08-20T12:19:37;101654.41;;;20.26;100.00
25658;BME280;13517;59.320;18.042;2023-08-20T12:22:02;101658.31;;;20.34;100.00
25658;BME280;13517;59.320;18.042;2023-08-20T12:24:29;101597.16;;;20.02;100.00
25658;BME280;13517;59.320;18.042;2023-08-20T12:26:54;101633.63;;;20.24;100.00
25658;BME280;13517;59.320;18.042;2023-08-20T12:29:20;101621.47;;;20.07;100.00
25658;BME280;13517;59.320;18.042;2023-08-20T12:31:45;101643.16;;;20.30;100.00
25658;BME280;13517;59.320;18.042;2023-08-20T12:34:11;101621.16;;;20.10;100.00
25658;BME280;13517;59.320;18.042;2023-08-20T12:36:36;101608.13;;;19.92;100.00
25658;BME280;13517;59.320;18.042;2023-08-20T12:39:02;101613.00;;;19.89;100.00
25658;BME280;13517;59.320;18.042;2023-08-20T12:41:29;101591.16;;;19.77;100.00
25658;BME280;13517;59.320;18.042;2023-08-20T12:43:55;101627.75;;;19.97;100.00